Dialion, Arkansas
Current Conditions -  °F | °C
As of 9:53 PM on Tuesday 21 Oct 2014 (Local Time) from KPBF Reporting Station
Clear Clear  
Wind Chill: 62°   Ceiling: Unl
Heat Index: 62°   Visibility: 10mi
Dew Point: 50°   Wind: 5mph
Humidity: 65%   Direction: 70°ENE
Pressure: 30.09"   Gusts: NA
Location:  33.947°N, 92.1633°W
Report Text: KPBF 220253Z AUTO 07004KT 10SM CLR 17/10 A3009 RMK AO2 SLP188 T01670100 53017
Loading
Personal Weather Stations






























Interactive Weather Map
Tropical Storm Tracking
New forecast layout! Learn more

10-Day Weather Forecast

Advertisements
Track Severe Weather on mobile